Commodore Goodwill — C6NU8 — position and weather

sailwx.info

Track history (hours):
 
Tides and Currents Weather Stations Pressure Air Temp Water Temp Dewpoint Dewpoint Depression Visibility Wind Speed Wind Dir Waves Ship Positions

Commodore Goodwill

Operator: Condor Marine Services

Last reported at 2017-Mar-30 20:33 UTC. Time now 2017-Mar-30 22:50 UTC.
Position N 50°41' W 001°00'.

Length 126 m; draft 5.3 m.

Type: Ship (hazmat cat C). MMSI: 309536000.

Date/timePositionNaut miles runAvg speedWind from/ knotsBaromVisibWave heightAir tempDewpointWater temp
2017-Mar-30 20:33N 50°41' W 001°00'8 8.1
2017-Mar-30 19:33N 50°49' W 001°06'0 0.0
2017-Mar-30 18:33N 50°49' W 001°06'0 0.0
2017-Mar-30 17:33N 50°49' W 001°06'0 0.0
2017-Mar-30 16:33N 50°49' W 001°06'0 0.0
2017-Mar-30 15:33N 50°49' W 001°06'9 9.2
2017-Mar-30 14:33N 50°40' W 001°05'3216.2
2017-Mar-30 12:34N 50°11' W 001°29'1918.8
2017-Mar-30 11:34N 49°57' W 001°48'48 9.5
2017-Mar-30 06:30N 49°11' W 002°07'37 6.9
2017-Mar-30 01:06N 49°47' W 001°59'814.4
2017-Mar-30 00:33N 49°54' W 001°52'1212.2
2017-Mar-29 23:33N 50°03' W 001°40'1111.0
2017-Mar-29 22:33N 50°13' W 001°31'3210.2
2017-Mar-29 19:25N 50°39' W 001°02'1011.7
2017-Mar-29 18:34N 50°48' W 001°07'1 0.9
2017-Mar-29 17:34N 50°49' W 001°06'0 0.0
2017-Mar-29 16:34N 50°49' W 001°06'0 0.0
2017-Mar-29 15:33N 50°49' W 001°06'8 8.2
2017-Mar-29 14:33N 50°41' W 001°03'4514.6
2017-Mar-29 11:30N 50°04' W 001°42'1516.4
2017-Mar-29 10:33N 49°51' W 001°55'4 0.4
2017-Mar-29 00:03N 49°48' W 002°00'714.0
2017-Mar-28 23:33N 49°54' W 001°54'1414.1
2017-Mar-28 22:34N 50°05' W 001°41'4213.8
2017-Mar-28 19:31N 50°39' W 001°02'1010.8
2017-Mar-28 18:33N 50°49' W 001°06'0 0.0
2017-Mar-28 17:33N 50°49' W 001°06'0 0.0
2017-Mar-28 16:33N 50°49' W 001°06'0 0.0
2017-Mar-28 15:33N 50°49' W 001°06'8 8.0
2017-Mar-28 14:33N 50°41' W 001°03'4714.3
2017-Mar-28 11:15N 50°02' W 001°45'1014.9
2017-Mar-28 10:33N 49°53' W 001°53'3 0.3
2017-Mar-27 23:34N 49°52' W 001°57'1515.3
2017-Mar-27 22:33N 50°04' W 001°43'1514.8
2017-Mar-27 21:33N 50°16' W 001°30'1414.2
2017-Mar-27 20:33N 50°28' W 001°17'1313.3
2017-Mar-27 19:33N 50°39' W 001°05'1010.0
2017-Mar-27 18:33N 50°49' W 001°06'0 0.0
2017-Mar-27 17:33N 50°49' W 001°06'0 0.0
2017-Mar-27 16:33N 50°49' W 001°06'0 0.0
2017-Mar-27 15:34N 50°49' W 001°06'8 8.3
2017-Mar-27 14:34N 50°41' W 001°01'1514.8
2017-Mar-27 13:34N 50°29' W 001°13'1515.2
2017-Mar-27 12:33N 50°16' W 001°27'1813.6
2017-Mar-27 11:13N 50°01' W 001°43'913.6
2017-Mar-27 10:33N 49°54' W 001°51'8 0.7
2017-Mar-26 23:20N 49°48' W 001°60'1013.1
2017-Mar-26 22:33N 49°56' W 001°51'1313.0
2017-Mar-26 21:33N 50°08' W 001°41'1413.7
2017-Mar-26 20:33N 50°19' W 001°28'1413.8
2017-Mar-26 19:33N 50°28' W 001°12'1212.3
2017-Mar-26 18:33N 50°38' W 001°01'1110.9
2017-Mar-26 17:33N 50°49' W 001°06'0 0.0
2017-Mar-26 16:33N 50°49' W 001°06'0 0.0
2017-Mar-26 15:33N 50°49' W 001°06'0 0.0
2017-Mar-26 14:33N 50°49' W 001°06'0 0.0
2017-Mar-26 13:33N 50°49' W 001°06'0 0.0
2017-Mar-26 12:33N 50°49' W 001°06'0 0.0
2017-Mar-26 11:34N 50°49' W 001°06'0 0.0
2017-Mar-26 10:33N 50°49' W 001°06'0 0.0
2017-Mar-26 09:33N 50°49' W 001°06'0 0.0
2017-Mar-26 08:33N 50°49' W 001°06'0 0.0
2017-Mar-26 07:33N 50°49' W 001°06'0 0.0
2017-Mar-26 06:33N 50°49' W 001°06'2 2.0
2017-Mar-26 05:34N 50°47' W 001°06'1413.4
2017-Mar-26 04:33N 50°33' W 001°11'2713.6
2017-Mar-26 02:33N 50°11' W 001°34'1413.8
2017-Mar-26 01:33N 49°59' W 001°46'1312.7
2017-Mar-26 00:34N 49°49' W 001°58'40 2.5
2017-Mar-25 08:25N 49°09' W 002°07'40 5.0
2017-Mar-25 00:34N 49°49' W 001°59'1514.9
2017-Mar-24 23:34N 50°01' W 001°47'4314.4
2017-Mar-24 20:33N 50°36' W 001°08'1212.2
2017-Mar-24 19:33N 50°49' W 001°07'1 0.6
2017-Mar-24 18:33N 50°49' W 001°06'0 0.0
2017-Mar-24 17:33N 50°49' W 001°06'0 0.2
2017-Mar-24 16:33N 50°49' W 001°06'1211.7
2017-Mar-24 15:33N 50°37' W 001°04'4317.2
2017-Mar-24 13:05N 50°02' W 001°43'815.6
2017-Mar-24 12:34N 49°56' W 001°50'8 0.7
2017-Mar-24 00:33N 49°49' W 001°57'1514.8
2017-Mar-23 23:33N 50°01' W 001°44'1514.7
2017-Mar-23 22:33N 50°13' W 001°31'2015.1
2017-Mar-23 21:12N 50°31' W 001°15'914.2
2017-Mar-23 20:33N 50°38' W 001°06'1110.6
2017-Mar-23 19:34N 50°49' W 001°06'0 0.1
2017-Mar-23 18:33N 50°49' W 001°06'0 0.0
2017-Mar-23 17:34N 50°49' W 001°06'0 0.0
2017-Mar-23 16:33N 50°49' W 001°06'8 8.1
2017-Mar-23 15:33N 50°41' W 001°03'3916.6
2017-Mar-23 13:13N 50°08' W 001°37'1116.3
2017-Mar-23 12:33N 49°60' W 001°46'15 1.2
2017-Mar-23 00:30N 49°48' W 002°01'1515.4
2017-Mar-22 23:33N 49°58' W 001°45'4915.9
2017-Mar-22 20:29N 50°40' W 001°05'9 9.9
2017-Mar-22 19:34N 50°49' W 001°06'0 0.0
2017-Mar-22 18:34N 50°49' W 001°06'0 0.0
2017-Mar-22 17:33N 50°49' W 001°06'0 0.0
2017-Mar-22 16:34N 50°49' W 001°06'8 8.0
2017-Mar-22 15:33N 50°41' W 001°03'3616.2
2017-Mar-22 13:20N 50°11' W 001°33'1114.3
2017-Mar-22 12:33N 50°02' W 001°44'1414.4
2017-Mar-22 11:33N 49°50' W 001°57'3 0.3
2017-Mar-22 00:28N 49°48' W 001°59'1314.2
2017-Mar-21 23:33N 49°58' W 001°47'1615.4
2017-Mar-21 22:33N 50°11' W 001°35'2315.8
2017-Mar-21 21:06N 50°30' W 001°15'915.4
2017-Mar-21 20:33N 50°37' W 001°07'1211.6
2017-Mar-21 19:33N 50°49' W 001°06'0 0.1
2017-Mar-21 18:33N 50°49' W 001°06'0 0.0
2017-Mar-21 17:33N 50°49' W 001°06'0 0.0
2017-Mar-21 16:33N 50°49' W 001°06'8 7.9
2017-Mar-21 15:34N 50°41' W 001°03'3514.6
2017-Mar-21 13:10N 50°11' W 001°32'914.9
2017-Mar-21 12:33N 50°04' W 001°41'1514.7
2017-Mar-21 11:33N 49°52' W 001°54'6 0.6
2017-Mar-21 00:33N 49°47' W 001°60'1514.7
2017-Mar-20 23:34N 49°59' W 001°46'1515.2
2017-Mar-20 22:33N 50°12' W 001°33'  
Track history (hours):
 
Tides and Currents Weather Stations Pressure Air Temp Water Temp Dewpoint Dewpoint Depression Visibility Wind Speed Wind Dir Waves Ship Positions

Commodore Goodwill

Operator: Condor Marine Services

Last reported at 2017-Mar-30 20:33 UTC. Time now 2017-Mar-30 22:50 UTC.
Position N 50°41' W 001°00'.

Length 126 m; draft 5.3 m.

Type: Ship (hazmat cat C). MMSI: 309536000.

Date/timePositionNaut miles runAvg speedWind from/ knotsBaromVisibWave heightAir tempDewpointWater temp
2017-Mar-30 20:33N 50°41' W 001°00'8 8.1
2017-Mar-30 19:33N 50°49' W 001°06'0 0.0
2017-Mar-30 18:33N 50°49' W 001°06'0 0.0
2017-Mar-30 17:33N 50°49' W 001°06'0 0.0
2017-Mar-30 16:33N 50°49' W 001°06'0 0.0
2017-Mar-30 15:33N 50°49' W 001°06'9 9.2
2017-Mar-30 14:33N 50°40' W 001°05'3216.2
2017-Mar-30 12:34N 50°11' W 001°29'1918.8
2017-Mar-30 11:34N 49°57' W 001°48'48 9.5
2017-Mar-30 06:30N 49°11' W 002°07'37 6.9
2017-Mar-30 01:06N 49°47' W 001°59'814.4
2017-Mar-30 00:33N 49°54' W 001°52'1212.2
2017-Mar-29 23:33N 50°03' W 001°40'1111.0
2017-Mar-29 22:33N 50°13' W 001°31'3210.2
2017-Mar-29 19:25N 50°39' W 001°02'1011.7
2017-Mar-29 18:34N 50°48' W 001°07'1 0.9
2017-Mar-29 17:34N 50°49' W 001°06'0 0.0
2017-Mar-29 16:34N 50°49' W 001°06'0 0.0
2017-Mar-29 15:33N 50°49' W 001°06'8 8.2
2017-Mar-29 14:33N 50°41' W 001°03'4514.6
2017-Mar-29 11:30N 50°04' W 001°42'1516.4
2017-Mar-29 10:33N 49°51' W 001°55'4 0.4
2017-Mar-29 00:03N 49°48' W 002°00'714.0
2017-Mar-28 23:33N 49°54' W 001°54'1414.1
2017-Mar-28 22:34N 50°05' W 001°41'4213.8
2017-Mar-28 19:31N 50°39' W 001°02'1010.8
2017-Mar-28 18:33N 50°49' W 001°06'0 0.0
2017-Mar-28 17:33N 50°49' W 001°06'0 0.0
2017-Mar-28 16:33N 50°49' W 001°06'0 0.0
2017-Mar-28 15:33N 50°49' W 001°06'8 8.0
2017-Mar-28 14:33N 50°41' W 001°03'4714.3
2017-Mar-28 11:15N 50°02' W 001°45'1014.9
2017-Mar-28 10:33N 49°53' W 001°53'3 0.3
2017-Mar-27 23:34N 49°52' W 001°57'1515.3
2017-Mar-27 22:33N 50°04' W 001°43'1514.8
2017-Mar-27 21:33N 50°16' W 001°30'1414.2
2017-Mar-27 20:33N 50°28' W 001°17'1313.3
2017-Mar-27 19:33N 50°39' W 001°05'1010.0
2017-Mar-27 18:33N 50°49' W 001°06'0 0.0
2017-Mar-27 17:33N 50°49' W 001°06'0 0.0
2017-Mar-27 16:33N 50°49' W 001°06'0 0.0
2017-Mar-27 15:34N 50°49' W 001°06'8 8.3
2017-Mar-27 14:34N 50°41' W 001°01'1514.8
2017-Mar-27 13:34N 50°29' W 001°13'1515.2
2017-Mar-27 12:33N 50°16' W 001°27'1813.6
2017-Mar-27 11:13N 50°01' W 001°43'913.6
2017-Mar-27 10:33N 49°54' W 001°51'8 0.7
2017-Mar-26 23:20N 49°48' W 001°60'1013.1
2017-Mar-26 22:33N 49°56' W 001°51'1313.0
2017-Mar-26 21:33N 50°08' W 001°41'1413.7
2017-Mar-26 20:33N 50°19' W 001°28'1413.8
2017-Mar-26 19:33N 50°28' W 001°12'1212.3
2017-Mar-26 18:33N 50°38' W 001°01'1110.9
2017-Mar-26 17:33N 50°49' W 001°06'0 0.0
2017-Mar-26 16:33N 50°49' W 001°06'0 0.0
2017-Mar-26 15:33N 50°49' W 001°06'0 0.0
2017-Mar-26 14:33N 50°49' W 001°06'0 0.0
2017-Mar-26 13:33N 50°49' W 001°06'0 0.0
2017-Mar-26 12:33N 50°49' W 001°06'0 0.0
2017-Mar-26 11:34N 50°49' W 001°06'0 0.0
2017-Mar-26 10:33N 50°49' W 001°06'0 0.0
2017-Mar-26 09:33N 50°49' W 001°06'0 0.0
2017-Mar-26 08:33N 50°49' W 001°06'0 0.0
2017-Mar-26 07:33N 50°49' W 001°06'0 0.0
2017-Mar-26 06:33N 50°49' W 001°06'2 2.0
2017-Mar-26 05:34N 50°47' W 001°06'1413.4
2017-Mar-26 04:33N 50°33' W 001°11'2713.6
2017-Mar-26 02:33N 50°11' W 001°34'1413.8
2017-Mar-26 01:33N 49°59' W 001°46'1312.7
2017-Mar-26 00:34N 49°49' W 001°58'40 2.5
2017-Mar-25 08:25N 49°09' W 002°07'40 5.0
2017-Mar-25 00:34N 49°49' W 001°59'1514.9
2017-Mar-24 23:34N 50°01' W 001°47'4314.4
2017-Mar-24 20:33N 50°36' W 001°08'1212.2
2017-Mar-24 19:33N 50°49' W 001°07'1 0.6
2017-Mar-24 18:33N 50°49' W 001°06'0 0.0
2017-Mar-24 17:33N 50°49' W 001°06'0 0.2
2017-Mar-24 16:33N 50°49' W 001°06'1211.7
2017-Mar-24 15:33N 50°37' W 001°04'4317.2
2017-Mar-24 13:05N 50°02' W 001°43'815.6
2017-Mar-24 12:34N 49°56' W 001°50'8 0.7
2017-Mar-24 00:33N 49°49' W 001°57'1514.8
2017-Mar-23 23:33N 50°01' W 001°44'1514.7
2017-Mar-23 22:33N 50°13' W 001°31'2015.1
2017-Mar-23 21:12N 50°31' W 001°15'914.2
2017-Mar-23 20:33N 50°38' W 001°06'1110.6
2017-Mar-23 19:34N 50°49' W 001°06'0 0.1
2017-Mar-23 18:33N 50°49' W 001°06'0 0.0
2017-Mar-23 17:34N 50°49' W 001°06'0 0.0
2017-Mar-23 16:33N 50°49' W 001°06'8 8.1
2017-Mar-23 15:33N 50°41' W 001°03'3916.6
2017-Mar-23 13:13N 50°08' W 001°37'1116.3
2017-Mar-23 12:33N 49°60' W 001°46'15 1.2
2017-Mar-23 00:30N 49°48' W 002°01'1515.4
2017-Mar-22 23:33N 49°58' W 001°45'4915.9
2017-Mar-22 20:29N 50°40' W 001°05'9 9.9
2017-Mar-22 19:34N 50°49' W 001°06'0 0.0
2017-Mar-22 18:34N 50°49' W 001°06'0 0.0
2017-Mar-22 17:33N 50°49' W 001°06'0 0.0
2017-Mar-22 16:34N 50°49' W 001°06'8 8.0
2017-Mar-22 15:33N 50°41' W 001°03'3616.2
2017-Mar-22 13:20N 50°11' W 001°33'1114.3
2017-Mar-22 12:33N 50°02' W 001°44'1414.4
2017-Mar-22 11:33N 49°50' W 001°57'3 0.3
2017-Mar-22 00:28N 49°48' W 001°59'1314.2
2017-Mar-21 23:33N 49°58' W 001°47'1615.4
2017-Mar-21 22:33N 50°11' W 001°35'2315.8
2017-Mar-21 21:06N 50°30' W 001°15'915.4
2017-Mar-21 20:33N 50°37' W 001°07'1211.6
2017-Mar-21 19:33N 50°49' W 001°06'0 0.1
2017-Mar-21 18:33N 50°49' W 001°06'0 0.0
2017-Mar-21 17:33N 50°49' W 001°06'0 0.0
2017-Mar-21 16:33N 50°49' W 001°06'8 7.9
2017-Mar-21 15:34N 50°41' W 001°03'3514.6
2017-Mar-21 13:10N 50°11' W 001°32'914.9
2017-Mar-21 12:33N 50°04' W 001°41'1514.7
2017-Mar-21 11:33N 49°52' W 001°54'6 0.6
2017-Mar-21 00:33N 49°47' W 001°60'1514.7
2017-Mar-20 23:34N 49°59' W 001°46'1515.2
2017-Mar-20 22:33N 50°12' W 001°33'  

Dump ship's entire track history